Time;durP1;ratioP1;P1;durP2;ratioP2;P2;SDS_P1;SDS_P2;PMS_P1;PMS_P2;Temp;Humidity;BMP_temperature;BMP_pressure;BME280_temperature;BME280_humidity;BME280_pressure;Samples;Min_cycle;Max_cycle;Signal;HPM_P1;HPM_P2
2022/08/21 00:01:53;;;;;;;;;;;;;;;20.75;66.07;101283.66;4988441;28;20393;-55
2022/08/21 00:04:19;;;;;;;;;;;;;;;20.67;65.90;101282.53;4990296;28;19930;-57
2022/08/21 00:06:44;;;;;;;;;;;;;;;20.63;65.83;101286.50;4988302;28;19929;-56
2022/08/21 00:09:09;;;;;;;;;;;;;;;20.54;65.75;101279.31;4971830;28;19933;-56
2022/08/21 00:11:35;;;;;;;;;;;;;;;20.48;65.96;101279.88;4987894;28;19976;-56
2022/08/21 00:14:01;;;;;;;;;;;;;;;20.47;66.02;101278.19;4993071;28;20609;-54
2022/08/21 00:16:26;;;;;;;;;;;;;;;20.45;65.96;101280.16;4989935;28;19937;-54
2022/08/21 00:18:52;;;;;;;;;;;;;;;20.47;65.88;101278.19;4992199;28;19932;-56
2022/08/21 00:21:17;;;;;;;;;;;;;;;20.46;65.98;101282.69;4991405;28;19925;-54
2022/08/21 00:23:42;;;;;;;;;;;;;;;20.47;65.81;101283.53;4989470;28;19952;-54
2022/08/21 00:26:08;;;;;;;;;;;;;;;20.47;65.65;101276.34;4992596;28;20068;-57
2022/08/21 00:28:33;;;;;;;;;;;;;;;20.47;65.44;101278.19;4991688;28;19929;-55
2022/08/21 00:30:59;;;;;;;;;;;;;;;20.42;65.59;101265.22;4988161;28;19922;-57
2022/08/21 00:33:25;;;;;;;;;;;;;;;20.39;65.35;101266.34;4987029;28;19948;-56
2022/08/21 00:35:50;;;;;;;;;;;;;;;20.36;65.70;101263.97;4989943;28;19932;-56
2022/08/21 00:38:16;;;;;;;;;;;;;;;20.33;65.26;101264.28;4993582;28;20862;-54
2022/08/21 00:40:46;;;;;;;;;;;;;;;20.29;65.50;101270.88;4993771;28;19936;-54
2022/08/21 00:43:14;;;;;;;;;;;;;;;20.27;65.56;101278.19;4987009;28;20012;-56
2022/08/21 00:45:39;;;;;;;;;;;;;;;20.26;65.30;101281.81;4987772;28;20019;-57
2022/08/21 00:48:05;;;;;;;;;;;;;;;20.28;65.27;101281.69;4989695;28;19926;-56
2022/08/21 00:50:32;;;;;;;;;;;;;;;20.30;65.17;101279.72;4991984;28;19967;-59
2022/08/21 00:52:58;;;;;;;;;;;;;;;20.29;65.04;101286.03;4992559;28;19929;-57
2022/08/21 00:55:24;;;;;;;;;;;;;;;20.25;65.30;101285.47;4990298;28;19926;-56
2022/08/21 00:57:51;;;;;;;;;;;;;;;20.24;65.17;101287.31;4986866;28;19922;-56
2022/08/21 01:00:19;;;;;;;;;;;;;;;20.27;65.12;101286.19;4984179;28;20947;-56
2022/08/21 01:02:45;;;;;;;;;;;;;;;20.31;65.22;101279.59;4989729;28;19949;-59
2022/08/21 01:05:11;;;;;;;;;;;;;;;20.30;65.11;101285.91;4988741;28;19956;-59
2022/08/21 01:07:37;;;;;;;;;;;;;;;20.32;65.13;101281.28;4985054;28;19921;-56
2022/08/21 01:10:03;;;;;;;;;;;;;;;20.37;64.93;101283.53;4989938;28;19929;-55
2022/08/21 01:12:28;;;;;;;;;;;;;;;20.38;64.98;101280.69;4988609;28;19921;-56
2022/08/21 01:14:54;;;;;;;;;;;;;;;20.42;64.84;101286.59;5002385;28;20051;-55
2022/08/21 01:17:20;;;;;;;;;;;;;;;20.46;64.87;101281.84;4999337;28;19960;-57
2022/08/21 01:19:46;;;;;;;;;;;;;;;20.48;64.48;101290.56;5002509;28;19952;-56
2022/08/21 01:22:12;;;;;;;;;;;;;;;20.51;64.59;101292.94;4988787;28;19937;-54
2022/08/21 01:24:37;;;;;;;;;;;;;;;20.54;64.28;101295.34;4991841;28;20040;-57
2022/08/21 01:27:02;;;;;;;;;;;;;;;20.53;64.56;101293.66;5005828;28;19926;-57
2022/08/21 01:29:47;;;;;;;;;;;;;;;20.53;64.20;101299.00;5008758;28;19925;-57
2022/08/21 01:32:14;;;;;;;;;;;;;;;20.50;64.42;101293.94;5004294;28;19987;-57
2022/08/21 01:34:41;;;;;;;;;;;;;;;20.47;64.05;101295.06;5005331;28;19932;-57
2022/08/21 01:37:07;;;;;;;;;;;;;;;20.46;63.97;101298.72;4989815;28;19979;-53
2022/08/21 01:39:32;;;;;;;;;;;;;;;20.46;64.14;101292.53;4989874;28;19989;-56
2022/08/21 01:41:58;;;;;;;;;;;;;;;20.45;64.02;101298.88;5005501;28;20039;-56
2022/08/21 01:44:24;;;;;;;;;;;;;;;20.41;63.83;101287.63;4991931;28;20374;-56
2022/08/21 01:46:49;;;;;;;;;;;;;;;20.40;64.12;101294.78;4996059;28;19960;-57
2022/08/21 01:49:15;;;;;;;;;;;;;;;20.39;63.83;101292.25;4989519;28;19918;-58
2022/08/21 01:51:41;;;;;;;;;;;;;;;20.38;64.07;101296.75;5010499;28;19925;-57
2022/08/21 01:54:06;;;;;;;;;;;;;;;20.37;64.17;101289.72;5019754;28;19930;-59
2022/08/21 01:56:36;;;;;;;;;;;;;;;20.36;63.98;101285.34;5001229;28;19922;-55
2022/08/21 01:59:02;;;;;;;;;;;;;;;20.31;64.33;101287.59;5008144;28;19944;-55
2022/08/21 02:01:27;;;;;;;;;;;;;;;20.29;64.11;101292.25;4995384;28;20475;-57
2022/08/21 02:03:52;;;;;;;;;;;;;;;20.28;64.19;101285.22;4985750;28;19936;-56
2022/08/21 02:06:17;;;;;;;;;;;;;;;20.29;64.39;101288.72;5006121;28;19980;-55
2022/08/21 02:08:43;;;;;;;;;;;;;;;20.27;64.53;101288.88;5020776;28;20195;-58
2022/08/21 02:11:08;;;;;;;;;;;;;;;20.27;64.32;101283.53;5002490;28;19921;-58
2022/08/21 02:13:34;;;;;;;;;;;;;;;20.25;64.49;101285.47;4988464;28;19996;-59
2022/08/21 02:15:59;;;;;;;;;;;;;;;20.21;64.21;101281.38;4988079;28;19917;-56
2022/08/21 02:18:25;;;;;;;;;;;;;;;20.19;64.51;101281.53;5006233;28;20840;-55
2022/08/21 02:20:50;;;;;;;;;;;;;;;20.18;64.53;101279.03;5005764;28;19921;-56
2022/08/21 02:23:16;;;;;;;;;;;;;;;20.16;64.58;101280.97;5002570;28;19967;-54
2022/08/21 02:25:41;;;;;;;;;;;;;;;20.17;64.63;101288.00;5002845;28;19976;-55
2022/08/21 02:28:09;;;;;;;;;;;;;;;20.17;64.41;101282.66;5006466;28;19947;-56
2022/08/21 02:30:37;;;;;;;;;;;;;;;20.16;64.51;101289.81;5000391;28;19936;-54
2022/08/21 02:33:03;;;;;;;;;;;;;;;20.15;64.12;101285.47;5003882;28;19926;-54
2022/08/21 02:35:29;;;;;;;;;;;;;;;20.15;64.47;101279.28;5015735;28;19926;-56
2022/08/21 02:37:56;;;;;;;;;;;;;;;20.17;64.38;101282.66;4991609;28;19921;-61
2022/08/21 02:40:24;;;;;;;;;;;;;;;20.17;64.24;101280.81;5003566;28;19933;-53
2022/08/21 02:42:50;;;;;;;;;;;;;;;20.16;64.42;101273.78;5004877;28;19944;-57
2022/08/21 02:45:17;;;;;;;;;;;;;;;20.13;64.19;101270.56;5000234;28;19930;-57
2022/08/21 02:47:52;;;;;;;;;;;;;;;20.09;64.32;101267.34;5004847;28;19922;-57
2022/08/21 02:50:26;;;;;;;;;;;;;;;20.07;64.43;101270.13;5005331;28;19925;-58
2022/08/21 02:52:52;;;;;;;;;;;;;;;20.03;64.81;101271.41;4993886;28;19918;-56
2022/08/21 02:55:18;;;;;;;;;;;;;;;20.01;64.74;101273.38;5003962;28;20068;-55
2022/08/21 02:57:43;;;;;;;;;;;;;;;20.00;64.65;101266.34;5006062;28;19926;-57
2022/08/21 03:00:11;;;;;;;;;;;;;;;19.99;64.98;101267.31;5017298;28;20320;-56
2022/08/21 03:02:36;;;;;;;;;;;;;;;19.97;64.65;101269.28;5005074;28;20707;-58
2022/08/21 03:05:02;;;;;;;;;;;;;;;19.92;64.72;101271.50;5002235;28;19980;-56
2022/08/21 03:07:27;;;;;;;;;;;;;;;19.87;65.10;101265.75;5005439;28;20055;-58
2022/08/21 03:09:53;;;;;;;;;;;;;;;19.84;65.27;101265.97;4990239;28;19935;-57
2022/08/21 03:12:18;;;;;;;;;;;;;;;19.85;65.26;101273.00;5018523;28;19932;-54
2022/08/21 03:14:43;;;;;;;;;;;;;;;19.80;65.02;101265.41;5007933;28;19925;-57
2022/08/21 03:17:09;;;;;;;;;;;;;;;19.72;65.00;101265.25;5004449;28;19940;-58
2022/08/21 03:19:34;;;;;;;;;;;;;;;19.66;65.37;101269.31;4990145;28;19925;-55
2022/08/21 03:21:59;;;;;;;;;;;;;;;19.63;65.10;101262.41;5005299;28;19922;-57
2022/08/21 03:24:25;;;;;;;;;;;;;;;19.59;65.44;101260.13;5003893;28;19922;-55
2022/08/21 03:26:50;;;;;;;;;;;;;;;19.55;65.20;101261.41;5009746;28;19941;-57
2022/08/21 03:29:15;;;;;;;;;;;;;;;19.51;65.38;101255.50;4982446;28;19994;-56
2022/08/21 03:31:41;;;;;;;;;;;;;;;19.49;65.44;101268.94;5002845;28;20056;-56
2022/08/21 03:34:06;;;;;;;;;;;;;;;19.47;65.51;101262.91;5002208;28;19961;-55
2022/08/21 03:36:31;;;;;;;;;;;;;;;19.47;65.29;101259.41;5003549;28;19920;-58
2022/08/21 03:38:57;;;;;;;;;;;;;;;19.48;65.48;101266.44;4983270;28;19932;-55
2022/08/21 03:41:22;;;;;;;;;;;;;;;19.45;65.27;101264.03;4997346;28;19977;-54
2022/08/21 03:43:48;;;;;;;;;;;;;;;19.41;65.13;101273.28;5010877;28;20304;-56
2022/08/21 03:46:13;;;;;;;;;;;;;;;19.36;65.58;101262.16;4997319;28;19941;-56
2022/08/21 03:48:39;;;;;;;;;;;;;;;19.30;65.17;101268.84;4999186;28;19949;-57
2022/08/21 03:51:06;;;;;;;;;;;;;;;19.26;65.45;101264.78;4988036;28;20005;-53
2022/08/21 03:53:31;;;;;;;;;;;;;;;19.23;65.62;101262.38;4994591;28;20000;-56
2022/08/21 03:55:56;;;;;;;;;;;;;;;19.18;65.49;101255.63;4987783;28;20420;-54
2022/08/21 03:58:23;;;;;;;;;;;;;;;19.16;65.93;101262.91;4992980;28;20376;-57
2022/08/21 04:00:50;;;;;;;;;;;;;;;19.16;65.85;101260.22;4989454;28;20337;-57
2022/08/21 04:03:16;;;;;;;;;;;;;;;19.15;65.79;101266.53;4991459;28;19976;-56
2022/08/21 04:05:41;;;;;;;;;;;;;;;19.13;66.10;101265.84;4992964;28;19972;-55
2022/08/21 04:08:07;;;;;;;;;;;;;;;19.12;65.90;101272.16;4990702;28;19929;-58
2022/08/21 04:10:34;;;;;;;;;;;;;;;19.10;65.91;101267.91;4988436;28;20394;-57
2022/08/21 04:13:00;;;;;;;;;;;;;;;19.09;66.20;101267.09;4990400;28;19921;-56
2022/08/21 04:15:26;;;;;;;;;;;;;;;19.09;65.99;101272.41;4989433;28;19925;-54
2022/08/21 04:17:51;;;;;;;;;;;;;;;19.09;65.86;101272.41;4990242;28;19921;-59
2022/08/21 04:20:17;;;;;;;;;;;;;;;19.11;65.92;101267.81;4992057;28;20293;-59
2022/08/21 04:22:44;;;;;;;;;;;;;;;19.10;65.95;101273.25;4991907;28;19938;-55
2022/08/21 04:25:09;;;;;;;;;;;;;;;19.04;66.13;101269.28;4985146;28;19925;-56
2022/08/21 04:27:34;;;;;;;;;;;;;;;19.00;66.03;101278.53;4985879;28;19922;-60
2022/08/21 04:30:00;;;;;;;;;;;;;;;19.00;66.08;101273.19;4988909;28;19925;-56
2022/08/21 04:32:26;;;;;;;;;;;;;;;18.99;66.43;101277.69;4984890;28;19968;-55
2022/08/21 04:34:57;;;;;;;;;;;;;;;18.98;66.29;101269.84;4992634;28;20439;-57
2022/08/21 04:37:23;;;;;;;;;;;;;;;18.98;66.51;101272.50;4992370;28;20323;-58
2022/08/21 04:39:48;;;;;;;;;;;;;;;18.95;66.49;101270.09;4991039;28;20432;-60
2022/08/21 04:42:14;;;;;;;;;;;;;;;18.94;66.50;101273.69;4989385;28;20912;-56
2022/08/21 04:44:40;;;;;;;;;;;;;;;18.95;66.24;101278.09;4991534;28;19976;-54
2022/08/21 04:47:06;;;;;;;;;;;;;;;18.90;66.64;101275.78;4989069;28;19940;-59
2022/08/21 04:49:32;;;;;;;;;;;;;;;18.88;66.67;101273.22;4993480;28;19933;-58
2022/08/21 04:51:58;;;;;;;;;;;;;;;18.89;66.69;101280.25;4989691;28;19929;-53
2022/08/21 04:54:24;;;;;;;;;;;;;;;18.95;66.86;101275.41;4984755;28;19925;-55
2022/08/21 04:56:59;;;;;;;;;;;;;;;18.98;66.69;101277.84;4987706;28;19925;-54
2022/08/21 04:59:27;;;;;;;;;;;;;;;19.00;66.42;101275.84;4991557;28;20493;-55
2022/08/21 05:01:56;;;;;;;;;;;;;;;18.99;66.38;101284.81;4987390;28;19995;-56
2022/08/21 05:04:24;;;;;;;;;;;;;;;19.00;66.61;101276.72;4990460;28;19926;-54
2022/08/21 05:06:51;;;;;;;;;;;;;;;19.00;66.56;101278.53;4992214;28;19925;-54
2022/08/21 05:09:17;;;;;;;;;;;;;;;19.02;66.96;101279.25;4992701;28;19928;-55
2022/08/21 05:11:42;;;;;;;;;;;;;;;19.04;66.79;101285.28;4996635;28;19929;-58
2022/08/21 05:14:08;;;;;;;;;;;;;;;19.09;66.59;101283.09;4998806;28;19977;-56
2022/08/21 05:16:33;;;;;;;;;;;;;;;19.12;66.40;101282.84;4988140;28;20488;-57
2022/08/21 05:18:58;;;;;;;;;;;;;;;19.12;66.49;101292.63;4993343;28;19968;-55
2022/08/21 05:21:24;;;;;;;;;;;;;;;19.10;66.44;101283.91;4997564;28;19928;-56
2022/08/21 05:23:49;;;;;;;;;;;;;;;19.07;66.61;101287.69;4989247;28;19930;-55
2022/08/21 05:26:14;;;;;;;;;;;;;;;19.06;66.59;101275.34;4992354;28;19937;-56
2022/08/21 05:28:40;;;;;;;;;;;;;;;19.07;66.61;101279.69;4992735;28;19976;-57
2022/08/21 05:31:05;;;;;;;;;;;;;;;19.07;66.93;101282.38;4991793;28;20164;-60
2022/08/21 05:33:31;;;;;;;;;;;;;;;19.04;66.70;101274.63;4990472;28;19929;-56
2022/08/21 05:35:56;;;;;;;;;;;;;;;19.02;67.06;101277.44;4992104;28;19976;-60
2022/08/21 05:38:27;;;;;;;;;;;;;;;19.05;67.01;101281.66;4996796;28;20292;-58
2022/08/21 05:40:52;;;;;;;;;;;;;;;19.10;66.63;101273.25;4991135;28;19925;-56
2022/08/21 05:43:18;;;;;;;;;;;;;;;19.09;67.17;101275.09;4994197;28;19921;-58
2022/08/21 05:45:43;;;;;;;;;;;;;;;19.07;67.10;101285.03;4991908;28;19936;-55
2022/08/21 05:48:20;;;;;;;;;;;;;;;19.05;66.80;101273.66;4967411;28;19925;-60
2022/08/21 05:50:46;;;;;;;;;;;;;;;19.07;67.07;101277.03;4980829;28;19926;-53
2022/08/21 05:53:12;;;;;;;;;;;;;;;19.10;67.20;101278.59;4975387;28;19929;-55
2022/08/21 05:55:38;;;;;;;;;;;;;;;19.14;67.32;101280.03;4991116;28;19925;-57
2022/08/21 05:58:03;;;;;;;;;;;;;;;19.22;66.77;101290.03;4994585;28;19929;-54
2022/08/21 06:00:29;;;;;;;;;;;;;;;19.18;66.91;101284.94;4991714;28;19961;-57
2022/08/21 06:02:54;;;;;;;;;;;;;;;19.18;67.03;101282.28;4990940;28;20024;-54
2022/08/21 06:05:20;;;;;;;;;;;;;;;19.20;66.92;101290.19;4991952;28;19967;-55
2022/08/21 06:07:45;;;;;;;;;;;;;;;19.21;66.85;101294.50;4988591;28;20293;-54
2022/08/21 06:10:10;;;;;;;;;;;;;;;19.20;67.22;101295.50;4990181;28;19953;-57
2022/08/21 06:12:36;;;;;;;;;;;;;;;19.23;66.90;101303.22;4992036;28;19972;-56
2022/08/21 06:15:01;;;;;;;;;;;;;;;19.22;67.15;101293.53;4990182;28;20035;-57
2022/08/21 06:17:27;;;;;;;;;;;;;;;19.21;67.19;101301.69;4971951;28;20850;-57
2022/08/21 06:19:53;;;;;;;;;;;;;;;19.21;67.14;101301.69;4994503;28;20374;-57
2022/08/21 06:22:19;;;;;;;;;;;;;;;19.24;67.18;101302.25;4994635;28;19925;-54
2022/08/21 06:24:45;;;;;;;;;;;;;;;19.27;67.09;101295.81;4991284;28;19933;-56
2022/08/21 06:27:10;;;;;;;;;;;;;;;19.27;67.20;101301.16;4991950;28;19918;-56
2022/08/21 06:29:35;;;;;;;;;;;;;;;19.26;67.19;101296.81;4995563;28;19921;-55
2022/08/21 06:32:01;;;;;;;;;;;;;;;19.30;67.14;101308.88;4991719;28;20047;-55
2022/08/21 06:34:26;;;;;;;;;;;;;;;19.33;67.35;101306.81;4993775;28;19925;-55
2022/08/21 06:36:52;;;;;;;;;;;;;;;19.36;67.40;101299.53;4987602;28;19969;-54
2022/08/21 06:39:17;;;;;;;;;;;;;;;19.41;67.60;101302.63;4990004;28;19925;-56
2022/08/21 06:41:43;;;;;;;;;;;;;;;19.47;67.41;101308.28;4991127;28;19976;-56
2022/08/21 06:44:08;;;;;;;;;;;;;;;19.55;67.15;101310.28;4988557;28;19933;-57
2022/08/21 06:46:33;;;;;;;;;;;;;;;19.59;67.32;101305.50;4989275;28;20389;-54
2022/08/21 06:48:59;;;;;;;;;;;;;;;19.63;67.32;101313.13;4993956;28;20020;-53
2022/08/21 06:51:25;;;;;;;;;;;;;;;19.66;66.88;101304.00;4986905;28;19926;-58
2022/08/21 06:53:51;;;;;;;;;;;;;;;19.63;66.99;101317.63;4990858;28;19925;-55
2022/08/21 06:56:16;;;;;;;;;;;;;;;19.58;67.07;101314.53;4992605;28;19975;-54
2022/08/21 06:58:41;;;;;;;;;;;;;;;19.58;67.18;101311.84;4991557;28;20382;-58
2022/08/21 07:01:07;;;;;;;;;;;;;;;19.59;67.06;101316.19;4989868;28;19922;-61
2022/08/21 07:03:36;;;;;;;;;;;;;;;19.58;67.32;101314.53;4990047;28;19944;-55
2022/08/21 07:06:03;;;;;;;;;;;;;;;19.60;67.22;101309.88;4986245;28;19975;-55
2022/08/21 07:08:28;;;;;;;;;;;;;;;19.63;67.25;101309.59;4987206;28;19929;-55
2022/08/21 07:10:56;;;;;;;;;;;;;;;19.67;67.16;101310.16;4994344;28;20380;-56
2022/08/21 07:13:21;;;;;;;;;;;;;;;19.72;67.32;101315.97;4992483;28;20385;-55
2022/08/21 07:15:46;;;;;;;;;;;;;;;19.72;67.27;101313.28;4992632;28;19967;-56
2022/08/21 07:18:13;;;;;;;;;;;;;;;19.73;67.27;101310.50;4995322;28;19978;-56
2022/08/21 07:20:38;;;;;;;;;;;;;;;19.76;67.08;101312.88;4973449;28;20360;-60
2022/08/21 07:23:06;;;;;;;;;;;;;;;19.80;67.07;101318.81;4988882;28;20060;-56
2022/08/21 07:25:31;;;;;;;;;;;;;;;19.80;66.73;101311.63;4991859;28;19925;-58
2022/08/21 07:27:56;;;;;;;;;;;;;;;19.79;67.04;101312.63;4992237;28;20476;-56
2022/08/21 07:30:22;;;;;;;;;;;;;;;19.79;67.03;101323.28;4991322;28;19960;-57
2022/08/21 07:32:49;;;;;;;;;;;;;;;19.80;67.26;101316.97;4989891;28;19925;-56
2022/08/21 07:35:14;;;;;;;;;;;;;;;19.81;66.99;101307.16;4988293;28;19922;-54
2022/08/21 07:37:40;;;;;;;;;;;;;;;19.85;67.28;101310.41;4988807;28;20329;-56
2022/08/21 07:40:05;;;;;;;;;;;;;;;19.91;67.23;101329.44;4982400;28;20007;-56
2022/08/21 07:42:30;;;;;;;;;;;;;;;19.95;66.89;101316.63;4983731;28;20095;-57
2022/08/21 07:44:56;;;;;;;;;;;;;;;19.96;66.86;101318.31;4990515;28;19933;-57
2022/08/21 07:47:21;;;;;;;;;;;;;;;19.98;66.99;101324.38;4989869;28;19991;-55
2022/08/21 07:49:46;;;;;;;;;;;;;;;20.03;66.95;101315.94;4993693;28;20068;-54
2022/08/21 07:52:12;;;;;;;;;;;;;;;20.08;66.90;101311.88;4992638;28;20308;-56
2022/08/21 07:54:37;;;;;;;;;;;;;;;20.12;66.86;101322.31;4991695;28;19922;-57
2022/08/21 07:57:03;;;;;;;;;;;;;;;20.15;66.80;101312.19;4996487;28;20409;-56
2022/08/21 07:59:28;;;;;;;;;;;;;;;20.22;66.87;101310.66;4984863;28;19930;-54
2022/08/21 08:01:54;;;;;;;;;;;;;;;20.29;66.26;101318.09;4990488;28;20016;-54
2022/08/21 08:04:19;;;;;;;;;;;;;;;20.33;66.46;101319.53;4991464;28;19926;-54
2022/08/21 08:06:45;;;;;;;;;;;;;;;20.37;66.59;101313.75;4986613;28;20391;-57
2022/08/21 08:09:11;;;;;;;;;;;;;;;20.41;66.24;101309.84;4987465;28;19930;-57
2022/08/21 08:11:38;;;;;;;;;;;;;;;20.47;66.15;101304.91;4975396;28;19965;-59
2022/08/21 08:14:04;;;;;;;;;;;;;;;20.53;66.33;101309.69;4993167;28;20196;-56
2022/08/21 08:16:29;;;;;;;;;;;;;;;20.63;66.22;101310.56;5000536;28;19929;-54
2022/08/21 08:18:55;;;;;;;;;;;;;;;20.68;66.06;101312.81;4990765;28;24936;-56
2022/08/21 08:21:21;;;;;;;;;;;;;;;20.74;65.80;101303.38;4984553;28;19940;-56
2022/08/21 08:23:46;;;;;;;;;;;;;;;20.79;65.57;101310.00;4990904;28;19925;-58
2022/08/21 08:26:12;;;;;;;;;;;;;;;20.82;65.45;101312.41;4983583;28;19933;-55
2022/08/21 08:28:37;;;;;;;;;;;;;;;20.87;65.59;101325.34;4989548;28;19926;-54
2022/08/21 08:31:03;;;;;;;;;;;;;;;20.89;65.28;101326.03;4992202;28;19921;-58
2022/08/21 08:33:28;;;;;;;;;;;;;;;20.92;65.51;101332.94;4987815;28;19965;-57
2022/08/21 08:35:54;;;;;;;;;;;;;;;20.94;65.22;101328.28;4982805;28;20080;-54
2022/08/21 08:38:20;;;;;;;;;;;;;;;20.93;65.00;101327.47;4987295;28;19926;-53
2022/08/21 08:41:06;;;;;;;;;;;;;;;20.95;65.21;101327.31;4990955;28;19922;-53
2022/08/21 08:43:32;;;;;;;;;;;;;;;20.95;65.06;101320.09;4984536;28;20319;-59
2022/08/21 08:46:01;;;;;;;;;;;;;;;20.96;64.79;101323.66;4992335;28;19921;-57
2022/08/21 08:48:50;;;;;;;;;;;;;;;20.96;65.01;101316.44;5004040;28;19925;-55
2022/08/21 08:51:22;;;;;;;;;;;;;;;20.99;65.25;101310.81;4977175;28;20143;-56
2022/08/21 08:54:09;;;;;;;;;;;;;;;21.03;64.81;101308.69;5000273;28;19922;-55
2022/08/21 08:56:35;;;;;;;;;;;;;;;21.07;64.80;101306.59;5003153;28;19932;-57
2022/08/21 08:59:06;;;;;;;;;;;;;;;21.09;64.90;101308.13;4999839;28;19926;-56
2022/08/21 09:01:32;;;;;;;;;;;;;;;21.13;65.04;101306.88;4999497;28;19926;-57
2022/08/21 09:03:58;;;;;;;;;;;;;;;21.18;64.81;101314.44;4997227;28;20012;-54
2022/08/21 09:06:32;;;;;;;;;;;;;;;21.22;64.98;101315.00;4994176;28;21003;-54
2022/08/21 09:09:24;;;;;;;;;;;;;;;21.26;64.69;101316.41;4994342;28;19957;-56
2022/08/21 09:11:56;;;;;;;;;;;;;;;21.27;64.44;101316.25;4971655;28;19925;-57
2022/08/21 09:14:23;;;;;;;;;;;;;;;21.28;64.51;101331.31;4988660;28;19926;-56
2022/08/21 09:16:48;;;;;;;;;;;;;;;21.29;64.46;101306.25;5000192;28;19929;-61
2022/08/21 09:19:23;;;;;;;;;;;;;;;21.32;64.23;101311.31;4995682;28;19941;-61
2022/08/21 09:21:48;;;;;;;;;;;;;;;21.36;63.92;101316.38;4997149;28;20434;-55
2022/08/21 09:24:28;;;;;;;;;;;;;;;21.40;64.11;101317.78;4998943;28;19993;-58
2022/08/21 09:27:02;;;;;;;;;;;;;;;21.43;63.90;101315.66;4987660;28;19924;-56
2022/08/21 09:29:29;;;;;;;;;;;;;;;21.46;63.83;101318.03;4971641;28;19995;-57
2022/08/21 09:31:55;;;;;;;;;;;;;;;21.50;63.72;101321.25;4978152;28;19983;-55
2022/08/21 09:34:28;;;;;;;;;;;;;;;21.54;63.63;101320.00;4985529;28;19937;-57
2022/08/21 09:36:54;;;;;;;;;;;;;;;21.55;63.43;101329.72;4977232;28;20240;-53
2022/08/21 09:39:28;;;;;;;;;;;;;;;21.54;63.24;101325.34;4989421;28;20007;-56
2022/08/21 09:41:58;;;;;;;;;;;;;;;21.54;63.47;101333.38;4987867;28;20456;-56
2022/08/21 09:44:28;;;;;;;;;;;;;;;21.54;63.30;101335.19;4996644;28;20404;-58
2022/08/21 09:46:54;;;;;;;;;;;;;;;21.52;63.27;101327.31;5001633;28;19926;-59
2022/08/21 09:49:36;;;;;;;;;;;;;;;21.51;63.11;101328.31;4997116;28;20094;-57
2022/08/21 09:52:06;;;;;;;;;;;;;;;21.51;63.18;101325.63;4989299;28;19926;-57
2022/08/21 09:54:40;;;;;;;;;;;;;;;21.56;63.14;101334.03;4970784;28;20378;-56
2022/08/21 09:59:53;;;;;;;;;;;;;;;21.58;62.93;101326.72;4986888;28;19944;-56
2022/08/21 10:02:29;;;;;;;;;;;;;;;21.62;63.12;101335.34;4991961;28;20309;-55
2022/08/21 10:05:03;;;;;;;;;;;;;;;21.64;62.73;101329.84;4983276;28;19932;-55
2022/08/21 10:07:30;;;;;;;;;;;;;;;21.66;62.90;101338.56;4991650;28;20277;-57
2022/08/21 10:10:04;;;;;;;;;;;;;;;21.67;63.09;101329.56;5002256;28;20472;-57
2022/08/21 10:12:40;;;;;;;;;;;;;;;21.72;62.67;101333.47;4999785;28;20028;-58
2022/08/21 10:15:13;;;;;;;;;;;;;;;21.77;62.63;101335.69;5001003;28;19922;-58
2022/08/21 10:17:44;;;;;;;;;;;;;;;21.83;62.51;101340.47;5001061;28;19960;-56
2022/08/21 10:20:10;;;;;;;;;;;;;;;21.84;62.39;101328.78;4986722;28;19928;-53
2022/08/21 10:22:47;;;;;;;;;;;;;;;21.87;62.39;101331.13;4973817;28;19922;-53
2022/08/21 10:25:26;;;;;;;;;;;;;;;21.86;62.16;101332.13;4985362;28;20490;-58
2022/08/21 10:28:00;;;;;;;;;;;;;;;21.90;62.23;101330.84;4987366;28;19991;-55
2022/08/21 10:30:37;;;;;;;;;;;;;;;21.92;62.11;101326.19;4982463;28;20537;-55
2022/08/21 10:33:21;;;;;;;;;;;;;;;21.95;62.16;101322.34;4989640;28;20308;-58
2022/08/21 10:36:22;;;;;;;;;;;;;;;21.99;61.94;101325.59;4981895;28;20016;-57
2022/08/21 10:38:53;;;;;;;;;;;;;;;22.08;62.12;101324.69;4925628;28;20309;-54
2022/08/21 10:41:18;;;;;;;;;;;;;;;22.16;62.06;101324.75;4975169;28;19928;-56
2022/08/21 10:43:44;;;;;;;;;;;;;;;22.25;61.69;101332.91;4982175;28;19937;-57
2022/08/21 10:46:28;;;;;;;;;;;;;;;22.29;61.48;101328.94;4986625;28;19932;-55
2022/08/21 10:48:57;;;;;;;;;;;;;;;22.32;61.37;101333.97;4982532;28;19921;-54
2022/08/21 10:51:42;;;;;;;;;;;;;;;22.32;61.41;101326.78;4986465;28;19921;-55
2022/08/21 10:54:10;;;;;;;;;;;;;;;22.35;61.11;101328.31;4978257;28;19928;-54
2022/08/21 10:56:38;;;;;;;;;;;;;;;22.36;60.91;101327.31;4987976;28;19925;-56
2022/08/21 10:59:09;;;;;;;;;;;;;;;22.39;61.14;101324.34;4985484;28;19925;-54
2022/08/21 11:01:55;;;;;;;;;;;;;;;22.46;60.84;101325.44;4982983;28;20409;-56
2022/08/21 11:04:20;;;;;;;;;;;;;;;22.52;60.86;101330.19;4977454;28;19921;-56
2022/08/21 11:06:48;;;;;;;;;;;;;;;22.58;60.56;101328.72;4987023;28;20301;-57
2022/08/21 11:09:17;;;;;;;;;;;;;;;22.59;60.25;101330.41;4986656;28;19937;-57
2022/08/21 11:12:01;;;;;;;;;;;;;;;22.59;60.24;101325.06;4987603;28;19921;-55
2022/08/21 11:14:27;;;;;;;;;;;;;;;22.62;59.80;101335.47;4991248;28;19925;-54
2022/08/21 11:17:11;;;;;;;;;;;;;;;22.63;59.82;101334.50;4972603;28;19925;-53
2022/08/21 11:20:03;;;;;;;;;;;;;;;22.67;59.52;101332.34;4992851;28;20025;-56
2022/08/21 11:22:36;;;;;;;;;;;;;;;22.71;59.27;101333.72;4967924;28;19930;-57
2022/08/21 11:25:08;;;;;;;;;;;;;;;22.74;58.93;101336.09;4988537;28;20289;-56
2022/08/21 11:27:42;;;;;;;;;;;;;;;22.76;59.31;101341.28;4986915;28;21596;-56
2022/08/21 11:30:08;;;;;;;;;;;;;;;22.79;59.43;101335.63;4983344;28;20316;-55
2022/08/21 11:32:52;;;;;;;;;;;;;;;22.81;59.05;101334.47;4977851;28;19926;-56
2022/08/21 11:35:27;;;;;;;;;;;;;;;22.87;59.07;101338.38;4983633;28;19921;-56
2022/08/21 11:38:04;;;;;;;;;;;;;;;22.87;58.58;101329.47;4992156;28;19948;-57
2022/08/21 11:40:55;;;;;;;;;;;;;;;22.86;58.55;101336.69;4990169;28;19928;-56
2022/08/21 11:43:20;;;;;;;;;;;;;;;22.88;58.59;101341.91;4986585;28;19921;-55
2022/08/21 11:45:50;;;;;;;;;;;;;;;22.89;58.15;101343.59;4988938;28;19917;-56
2022/08/21 11:48:15;;;;;;;;;;;;;;;22.90;58.10;101337.22;4985749;28;19930;-56
2022/08/21 11:50:42;;;;;;;;;;;;;;;22.90;58.33;101329.19;4986880;28;19999;-56
2022/08/21 11:53:28;;;;;;;;;;;;;;;22.93;58.58;101331.53;4987471;28;19933;-56
2022/08/21 11:55:56;;;;;;;;;;;;;;;22.99;58.38;101333.59;4991081;28;19925;-56
2022/08/21 11:58:22;;;;;;;;;;;;;;;22.99;58.12;101334.44;4992735;28;19929;-62
2022/08/21 12:00:53;;;;;;;;;;;;;;;23.01;57.92;101339.66;4991220;28;19930;-56
2022/08/21 12:03:27;;;;;;;;;;;;;;;23.02;57.64;101343.16;4991081;28;19972;-57
2022/08/21 12:05:58;;;;;;;;;;;;;;;23.03;58.00;101337.66;4992634;28;19922;-58
2022/08/21 12:08:29;;;;;;;;;;;;;;;23.04;57.84;101333.13;4979275;28;19921;-55
2022/08/21 12:11:03;;;;;;;;;;;;;;;23.05;57.56;101335.69;4990343;28;20012;-56
2022/08/21 12:13:31;;;;;;;;;;;;;;;23.07;57.80;101333.66;4988752;28;19922;-54
2022/08/21 12:16:06;;;;;;;;;;;;;;;23.09;57.66;101342.38;4987253;28;19921;-56
2022/08/21 12:18:32;;;;;;;;;;;;;;;23.11;57.36;101335.03;4988676;28;20029;-54
2022/08/21 12:21:00;;;;;;;;;;;;;;;23.13;57.47;101337.56;4983312;28;19979;-53
2022/08/21 12:23:44;;;;;;;;;;;;;;;23.12;57.38;101331.34;4985327;28;19929;-55
2022/08/21 12:26:18;;;;;;;;;;;;;;;23.18;57.22;101339.78;4986289;28;19921;-55
2022/08/21 12:28:43;;;;;;;;;;;;;;;23.21;57.35;101339.50;4987657;28;19926;-54
2022/08/21 12:31:23;;;;;;;;;;;;;;;23.24;56.92;101336.47;4969458;28;19931;-54
2022/08/21 12:33:54;;;;;;;;;;;;;;;23.24;56.63;101344.53;4990874;28;19918;-55
2022/08/21 12:36:22;;;;;;;;;;;;;;;23.21;56.45;101329.59;4991277;28;20036;-56
2022/08/21 12:39:00;;;;;;;;;;;;;;;23.20;56.51;101329.72;4988791;28;19929;-56
2022/08/21 12:41:28;;;;;;;;;;;;;;;23.20;56.33;101337.78;4987624;28;19940;-55
2022/08/21 12:44:14;;;;;;;;;;;;;;;23.23;56.18;101326.75;4987401;28;19928;-56